CPS6 weather

Cornwall (Community Hospital McConnell Site) Heliport
Cornwall, Ontario, Canada

Public forecast

Using degrees Celsius for public forecast. Weather courtesy of forecast.io.

Closest aviation weather report (METAR) to Cornwall (Community Hospital McConnell Site) Heliport

Closest report is Massena International Richards Field, 7.4 nm (13.8 km) SW. Retrieved 2020/06/02 11:53 UTC (12 minutes ago):

KMSS 021153Z AUTO 00000KT 10SM -RA OVC075 10/07 A3000 RMK AO2 SLP159 P0000 60000 70001 T01000072 10100 20067 58000

Closest aviation forecast (TAF) to Cornwall (Community Hospital McConnell Site) Heliport

Closest forecast is Massena International Richards Field, 7.4 nm (13.8 km) SW. Retrieved 2020/06/02 12:27 UTC (0 seconds ago):

TAF KMSS 021125Z 0212/0312 VRB03KT P6SM VCSH BKN080 FM021500 19005KT P6SM OVC050 FM021800 19006KT P6SM VCSH BKN040 FM030600 VRB04KT 5SM BR OVC028